sensor_id;sensor_type;location;lat;lon;timestamp;pressure;altitude;pressure_sealevel;temperature;humidity
42411;BME280;28056;51.112;0.984;2023-11-19T00:01:30;100028.98;;;12.07;100.00
42411;BME280;28056;51.112;0.984;2023-11-19T00:03:58;100017.17;;;12.54;100.00
42411;BME280;28056;51.112;0.984;2023-11-19T00:06:25;100010.38;;;12.50;100.00
42411;BME280;28056;51.112;0.984;2023-11-19T00:08:53;100017.67;;;12.72;100.00
42411;BME280;28056;51.112;0.984;2023-11-19T00:11:21;100010.63;;;12.28;100.00
42411;BME280;28056;51.112;0.984;2023-11-19T00:13:48;100002.51;;;12.71;100.00
42411;BME280;28056;51.112;0.984;2023-11-19T00:16:15;100009.12;;;12.70;100.00
42411;BME280;28056;51.112;0.984;2023-11-19T00:18:43;100009.86;;;11.83;100.00
42411;BME280;28056;51.112;0.984;2023-11-19T00:21:10;100008.44;;;12.41;100.00
42411;BME280;28056;51.112;0.984;2023-11-19T00:23:38;100020.79;;;12.30;100.00
42411;BME280;28056;51.112;0.984;2023-11-19T00:26:06;100018.64;;;12.60;100.00
42411;BME280;28056;51.112;0.984;2023-11-19T00:28:33;100014.39;;;12.05;100.00
42411;BME280;28056;51.112;0.984;2023-11-19T00:31:00;100021.27;;;11.85;100.00
42411;BME280;28056;51.112;0.984;2023-11-19T00:33:27;100026.34;;;11.93;100.00
42411;BME280;28056;51.112;0.984;2023-11-19T00:35:55;100028.52;;;12.28;100.00
42411;BME280;28056;51.112;0.984;2023-11-19T00:38:22;100016.25;;;12.51;100.00
42411;BME280;28056;51.112;0.984;2023-11-19T00:40:50;100010.00;;;12.76;100.00
42411;BME280;28056;51.112;0.984;2023-11-19T00:43:17;100004.77;;;12.28;100.00
42411;BME280;28056;51.112;0.984;2023-11-19T00:45:45;100002.91;;;12.12;100.00
42411;BME280;28056;51.112;0.984;2023-11-19T00:48:12;99993.76;;;12.04;100.00
42411;BME280;28056;51.112;0.984;2023-11-19T00:50:39;99994.11;;;12.29;100.00
42411;BME280;28056;51.112;0.984;2023-11-19T00:53:07;99985.61;;;11.75;100.00
42411;BME280;28056;51.112;0.984;2023-11-19T00:55:34;99987.95;;;11.87;100.00
42411;BME280;28056;51.112;0.984;2023-11-19T00:58:02;99978.98;;;11.85;100.00
42411;BME280;28056;51.112;0.984;2023-11-19T01:00:28;99978.93;;;12.27;100.00
42411;BME280;28056;51.112;0.984;2023-11-19T01:04:48;99977.68;;;10.59;100.00
42411;BME280;28056;51.112;0.984;2023-11-19T01:07:15;99973.01;;;12.28;100.00
42411;BME280;28056;51.112;0.984;2023-11-19T01:09:43;99974.32;;;11.70;100.00
42411;BME280;28056;51.112;0.984;2023-11-19T01:12:10;99974.74;;;12.13;100.00
42411;BME280;28056;51.112;0.984;2023-11-19T01:14:38;99979.92;;;12.57;100.00
42411;BME280;28056;51.112;0.984;2023-11-19T01:17:05;99989.34;;;12.11;100.00
42411;BME280;28056;51.112;0.984;2023-11-19T01:19:33;99999.12;;;12.27;100.00
42411;BME280;28056;51.112;0.984;2023-11-19T01:22:00;100005.79;;;10.87;100.00
42411;BME280;28056;51.112;0.984;2023-11-19T01:24:27;99987.50;;;11.65;100.00
42411;BME280;28056;51.112;0.984;2023-11-19T01:26:55;99994.14;;;11.98;100.00
42411;BME280;28056;51.112;0.984;2023-11-19T01:29:22;99989.37;;;11.49;100.00
42411;BME280;28056;51.112;0.984;2023-11-19T01:31:50;99989.55;;;12.07;100.00
42411;BME280;28056;51.112;0.984;2023-11-19T01:34:17;99986.17;;;12.05;100.00
42411;BME280;28056;51.112;0.984;2023-11-19T01:36:44;99974.20;;;11.67;100.00
42411;BME280;28056;51.112;0.984;2023-11-19T01:39:11;99981.57;;;11.87;100.00
42411;BME280;28056;51.112;0.984;2023-11-19T01:41:39;99984.93;;;11.10;100.00
42411;BME280;28056;51.112;0.984;2023-11-19T01:44:07;99988.07;;;11.92;100.00
42411;BME280;28056;51.112;0.984;2023-11-19T01:46:35;99978.53;;;11.44;100.00
42411;BME280;28056;51.112;0.984;2023-11-19T01:49:03;99983.39;;;11.87;100.00
42411;BME280;28056;51.112;0.984;2023-11-19T01:51:31;100002.10;;;11.52;100.00
42411;BME280;28056;51.112;0.984;2023-11-19T01:53:59;99995.06;;;11.77;100.00
42411;BME280;28056;51.112;0.984;2023-11-19T01:56:27;100001.00;;;11.36;100.00
42411;BME280;28056;51.112;0.984;2023-11-19T01:58:55;99991.26;;;11.87;100.00
42411;BME280;28056;51.112;0.984;2023-11-19T02:01:23;99990.06;;;11.50;100.00
42411;BME280;28056;51.112;0.984;2023-11-19T02:03:51;99985.18;;;11.76;100.00
42411;BME280;28056;51.112;0.984;2023-11-19T02:06:19;99995.82;;;11.73;100.00
42411;BME280;28056;51.112;0.984;2023-11-19T02:08:47;99993.65;;;11.02;100.00
42411;BME280;28056;51.112;0.984;2023-11-19T02:11:14;100005.44;;;11.27;100.00
42411;BME280;28056;51.112;0.984;2023-11-19T02:13:41;100003.65;;;11.70;100.00
42411;BME280;28056;51.112;0.984;2023-11-19T02:16:09;100014.33;;;11.45;100.00
42411;BME280;28056;51.112;0.984;2023-11-19T02:18:35;100009.30;;;11.50;100.00
42411;BME280;28056;51.112;0.984;2023-11-19T02:21:03;100002.18;;;11.42;100.00
42411;BME280;28056;51.112;0.984;2023-11-19T02:23:30;99992.01;;;11.10;100.00
42411;BME280;28056;51.112;0.984;2023-11-19T02:26:05;99998.69;;;11.56;100.00
42411;BME280;28056;51.112;0.984;2023-11-19T02:28:37;99980.28;;;11.07;100.00
42411;BME280;28056;51.112;0.984;2023-11-19T02:31:05;99993.76;;;11.27;100.00
42411;BME280;28056;51.112;0.984;2023-11-19T02:33:32;99994.33;;;11.70;100.00
42411;BME280;28056;51.112;0.984;2023-11-19T02:35:59;99991.70;;;11.73;100.00
42411;BME280;28056;51.112;0.984;2023-11-19T02:38:27;99992.14;;;11.73;100.00
42411;BME280;28056;51.112;0.984;2023-11-19T02:40:55;99991.96;;;11.81;100.00
42411;BME280;28056;51.112;0.984;2023-11-19T02:43:22;99993.24;;;11.52;100.00
42411;BME280;28056;51.112;0.984;2023-11-19T02:45:50;99993.34;;;11.08;100.00
42411;BME280;28056;51.112;0.984;2023-11-19T02:48:18;99987.17;;;11.13;100.00
42411;BME280;28056;51.112;0.984;2023-11-19T02:50:45;99986.63;;;11.24;100.00
42411;BME280;28056;51.112;0.984;2023-11-19T02:53:13;99987.09;;;11.11;100.00
42411;BME280;28056;51.112;0.984;2023-11-19T02:55:40;99981.07;;;11.19;100.00
42411;BME280;28056;51.112;0.984;2023-11-19T02:58:08;99980.29;;;11.45;100.00
42411;BME280;28056;51.112;0.984;2023-11-19T03:00:36;99981.75;;;10.90;100.00
42411;BME280;28056;51.112;0.984;2023-11-19T03:03:45;99985.75;;;11.32;100.00
42411;BME280;28056;51.112;0.984;2023-11-19T03:06:12;99986.76;;;11.26;100.00
42411;BME280;28056;51.112;0.984;2023-11-19T03:08:39;99980.83;;;11.01;100.00
42411;BME280;28056;51.112;0.984;2023-11-19T03:11:07;99991.55;;;11.19;100.00
42411;BME280;28056;51.112;0.984;2023-11-19T03:13:35;99986.76;;;10.84;100.00
42411;BME280;28056;51.112;0.984;2023-11-19T03:16:02;99980.24;;;11.16;100.00
42411;BME280;28056;51.112;0.984;2023-11-19T03:18:29;99974.52;;;11.38;100.00
42411;BME280;28056;51.112;0.984;2023-11-19T03:20:57;99964.93;;;11.70;100.00
42411;BME280;28056;51.112;0.984;2023-11-19T03:23:25;99969.24;;;11.59;100.00
42411;BME280;28056;51.112;0.984;2023-11-19T03:25:53;99964.65;;;11.36;100.00
42411;BME280;28056;51.112;0.984;2023-11-19T03:28:20;99972.92;;;11.54;100.00
42411;BME280;28056;51.112;0.984;2023-11-19T03:30:48;99969.55;;;11.98;100.00
42411;BME280;28056;51.112;0.984;2023-11-19T03:33:15;99967.13;;;12.07;100.00
42411;BME280;28056;51.112;0.984;2023-11-19T03:35:42;99960.46;;;12.27;100.00
42411;BME280;28056;51.112;0.984;2023-11-19T03:38:09;99964.55;;;12.28;100.00
42411;BME280;28056;51.112;0.984;2023-11-19T03:40:37;99950.75;;;12.04;100.00
42411;BME280;28056;51.112;0.984;2023-11-19T03:43:04;99951.58;;;11.78;100.00
42411;BME280;28056;51.112;0.984;2023-11-19T03:45:31;99945.65;;;11.85;100.00
42411;BME280;28056;51.112;0.984;2023-11-19T03:47:59;99973.37;;;11.89;100.00
42411;BME280;28056;51.112;0.984;2023-11-19T03:50:27;99955.56;;;11.85;100.00
42411;BME280;28056;51.112;0.984;2023-11-19T03:52:54;99942.44;;;11.27;100.00
42411;BME280;28056;51.112;0.984;2023-11-19T03:55:21;99944.31;;;11.55;100.00
42411;BME280;28056;51.112;0.984;2023-11-19T03:57:48;99942.14;;;11.66;100.00
42411;BME280;28056;51.112;0.984;2023-11-19T04:00:16;99945.97;;;10.92;100.00
42411;BME280;28056;51.112;0.984;2023-11-19T04:02:44;99945.92;;;11.72;100.00
42411;BME280;28056;51.112;0.984;2023-11-19T04:05:11;99943.13;;;10.84;100.00
42411;BME280;28056;51.112;0.984;2023-11-19T04:07:38;99947.77;;;11.63;100.00
42411;BME280;28056;51.112;0.984;2023-11-19T04:10:06;99962.60;;;11.02;100.00
42411;BME280;28056;51.112;0.984;2023-11-19T04:12:35;99953.11;;;11.34;100.00
42411;BME280;28056;51.112;0.984;2023-11-19T04:15:03;99961.92;;;11.07;100.00
42411;BME280;28056;51.112;0.984;2023-11-19T04:17:31;99955.54;;;11.57;100.00
42411;BME280;28056;51.112;0.984;2023-11-19T04:19:58;99955.89;;;11.75;100.00
42411;BME280;28056;51.112;0.984;2023-11-19T04:22:26;99961.60;;;11.39;100.00
42411;BME280;28056;51.112;0.984;2023-11-19T04:24:53;99960.47;;;11.44;100.00
42411;BME280;28056;51.112;0.984;2023-11-19T04:27:21;99962.99;;;11.53;100.00
42411;BME280;28056;51.112;0.984;2023-11-19T04:29:49;99975.66;;;10.49;100.00
42411;BME280;28056;51.112;0.984;2023-11-19T04:32:16;99967.35;;;10.12;100.00
42411;BME280;28056;51.112;0.984;2023-11-19T04:34:44;99969.39;;;11.13;100.00
42411;BME280;28056;51.112;0.984;2023-11-19T04:37:11;99961.87;;;10.49;100.00
42411;BME280;28056;51.112;0.984;2023-11-19T04:39:38;99961.15;;;11.06;100.00
42411;BME280;28056;51.112;0.984;2023-11-19T04:42:05;99980.33;;;10.66;100.00
42411;BME280;28056;51.112;0.984;2023-11-19T04:44:33;99976.68;;;10.65;100.00
42411;BME280;28056;51.112;0.984;2023-11-19T04:47:00;99969.81;;;11.48;100.00
42411;BME280;28056;51.112;0.984;2023-11-19T04:49:27;99972.49;;;10.78;100.00
42411;BME280;28056;51.112;0.984;2023-11-19T04:51:55;99977.92;;;11.06;100.00
42411;BME280;28056;51.112;0.984;2023-11-19T04:54:22;99968.69;;;11.52;100.00
42411;BME280;28056;51.112;0.984;2023-11-19T04:56:49;99967.32;;;11.17;100.00
42411;BME280;28056;51.112;0.984;2023-11-19T04:59:17;99958.68;;;11.78;100.00
42411;BME280;28056;51.112;0.984;2023-11-19T05:01:47;99958.46;;;11.34;100.00
42411;BME280;28056;51.112;0.984;2023-11-19T05:04:14;99958.93;;;11.72;100.00
42411;BME280;28056;51.112;0.984;2023-11-19T05:06:42;99956.69;;;11.58;100.00
42411;BME280;28056;51.112;0.984;2023-11-19T05:09:10;99950.61;;;11.42;100.00
42411;BME280;28056;51.112;0.984;2023-11-19T05:11:38;99949.95;;;11.58;100.00
42411;BME280;28056;51.112;0.984;2023-11-19T05:14:05;99948.83;;;11.53;100.00
42411;BME280;28056;51.112;0.984;2023-11-19T05:16:32;99963.76;;;11.88;100.00
42411;BME280;28056;51.112;0.984;2023-11-19T05:19:00;99938.83;;;11.79;100.00
42411;BME280;28056;51.112;0.984;2023-11-19T05:21:27;99947.34;;;11.87;100.00
42411;BME280;28056;51.112;0.984;2023-11-19T05:23:54;99947.84;;;11.15;100.00
42411;BME280;28056;51.112;0.984;2023-11-19T05:26:23;99939.42;;;10.60;100.00
42411;BME280;28056;51.112;0.984;2023-11-19T05:28:51;99951.37;;;10.42;100.00
42411;BME280;28056;51.112;0.984;2023-11-19T05:31:18;99957.88;;;11.08;100.00
42411;BME280;28056;51.112;0.984;2023-11-19T05:33:46;99958.34;;;11.16;100.00
42411;BME280;28056;51.112;0.984;2023-11-19T05:36:13;99961.34;;;11.02;100.00
42411;BME280;28056;51.112;0.984;2023-11-19T05:38:41;99962.43;;;10.41;100.00
42411;BME280;28056;51.112;0.984;2023-11-19T05:41:08;99965.56;;;10.84;100.00
42411;BME280;28056;51.112;0.984;2023-11-19T05:43:36;99961.40;;;11.75;100.00
42411;BME280;28056;51.112;0.984;2023-11-19T05:46:04;99951.88;;;11.42;100.00
42411;BME280;28056;51.112;0.984;2023-11-19T05:48:31;99965.23;;;10.87;100.00
42411;BME280;28056;51.112;0.984;2023-11-19T05:50:58;99956.10;;;11.23;100.00
42411;BME280;28056;51.112;0.984;2023-11-19T05:53:25;99965.44;;;10.97;100.00
42411;BME280;28056;51.112;0.984;2023-11-19T05:55:53;99959.92;;;11.81;100.00
42411;BME280;28056;51.112;0.984;2023-11-19T05:58:22;99959.72;;;11.29;100.00
42411;BME280;28056;51.112;0.984;2023-11-19T06:00:50;99962.97;;;12.22;100.00
42411;BME280;28056;51.112;0.984;2023-11-19T06:03:17;99954.53;;;11.72;100.00
42411;BME280;28056;51.112;0.984;2023-11-19T06:05:45;99966.86;;;12.06;100.00
42411;BME280;28056;51.112;0.984;2023-11-19T06:08:12;99964.11;;;11.13;100.00
42411;BME280;28056;51.112;0.984;2023-11-19T06:10:40;99978.98;;;10.71;100.00
42411;BME280;28056;51.112;0.984;2023-11-19T06:13:07;99966.33;;;11.25;100.00
42411;BME280;28056;51.112;0.984;2023-11-19T06:15:35;99963.65;;;11.25;100.00
42411;BME280;28056;51.112;0.984;2023-11-19T06:18:03;99976.59;;;11.41;100.00
42411;BME280;28056;51.112;0.984;2023-11-19T06:20:32;99977.68;;;11.84;100.00
42411;BME280;28056;51.112;0.984;2023-11-19T06:22:59;99982.13;;;11.91;100.00
42411;BME280;28056;51.112;0.984;2023-11-19T06:25:27;99988.18;;;10.98;100.00
42411;BME280;28056;51.112;0.984;2023-11-19T06:27:54;99977.05;;;11.53;100.00
42411;BME280;28056;51.112;0.984;2023-11-19T06:30:22;99979.28;;;11.82;100.00
42411;BME280;28056;51.112;0.984;2023-11-19T06:32:49;99980.67;;;11.25;100.00
42411;BME280;28056;51.112;0.984;2023-11-19T06:35:17;99976.18;;;11.76;100.00
42411;BME280;28056;51.112;0.984;2023-11-19T06:37:44;99975.62;;;11.68;100.00
42411;BME280;28056;51.112;0.984;2023-11-19T06:40:11;99965.98;;;12.25;100.00
42411;BME280;28056;51.112;0.984;2023-11-19T06:42:38;99962.49;;;11.69;100.00
42411;BME280;28056;51.112;0.984;2023-11-19T06:45:07;99962.22;;;11.52;100.00
42411;BME280;28056;51.112;0.984;2023-11-19T06:47:33;99966.90;;;11.84;100.00
42411;BME280;28056;51.112;0.984;2023-11-19T06:50:00;99962.61;;;12.12;100.00
42411;BME280;28056;51.112;0.984;2023-11-19T06:52:28;99970.88;;;10.67;100.00
42411;BME280;28056;51.112;0.984;2023-11-19T06:54:56;99973.46;;;10.36;100.00
42411;BME280;28056;51.112;0.984;2023-11-19T06:57:23;99970.08;;;10.42;100.00
42411;BME280;28056;51.112;0.984;2023-11-19T06:59:51;99973.25;;;10.80;100.00
42411;BME280;28056;51.112;0.984;2023-11-19T07:02:18;99976.51;;;11.00;100.00
42411;BME280;28056;51.112;0.984;2023-11-19T07:04:45;99980.14;;;9.88;100.00
42411;BME280;28056;51.112;0.984;2023-11-19T07:07:13;99976.00;;;10.53;100.00
42411;BME280;28056;51.112;0.984;2023-11-19T07:09:40;99975.44;;;10.74;100.00
42411;BME280;28056;51.112;0.984;2023-11-19T07:12:09;99967.12;;;10.96;100.00
42411;BME280;28056;51.112;0.984;2023-11-19T07:14:36;99965.34;;;9.84;100.00
42411;BME280;28056;51.112;0.984;2023-11-19T07:17:03;99967.92;;;10.71;100.00
42411;BME280;28056;51.112;0.984;2023-11-19T07:19:31;99967.94;;;10.04;100.00
42411;BME280;28056;51.112;0.984;2023-11-19T07:21:58;99965.13;;;9.59;100.00
42411;BME280;28056;51.112;0.984;2023-11-19T07:24:25;99967.58;;;10.98;100.00
42411;BME280;28056;51.112;0.984;2023-11-19T07:26:52;99956.04;;;11.00;100.00
42411;BME280;28056;51.112;0.984;2023-11-19T07:29:20;99961.53;;;10.54;100.00
42411;BME280;28056;51.112;0.984;2023-11-19T07:31:48;99965.64;;;10.58;100.00
42411;BME280;28056;51.112;0.984;2023-11-19T07:34:15;99960.64;;;10.55;100.00
42411;BME280;28056;51.112;0.984;2023-11-19T07:36:43;99956.11;;;10.16;100.00
42411;BME280;28056;51.112;0.984;2023-11-19T07:39:10;99979.84;;;9.13;100.00
42411;BME280;28056;51.112;0.984;2023-11-19T07:41:38;99972.69;;;9.27;100.00
42411;BME280;28056;51.112;0.984;2023-11-19T07:44:05;99979.78;;;9.19;100.00
42411;BME280;28056;51.112;0.984;2023-11-19T07:46:33;99977.53;;;9.06;100.00
42411;BME280;28056;51.112;0.984;2023-11-19T07:49:00;99975.65;;;8.52;100.00
42411;BME280;28056;51.112;0.984;2023-11-19T07:51:28;99986.19;;;9.22;100.00
42411;BME280;28056;51.112;0.984;2023-11-19T07:53:55;99977.43;;;8.57;100.00
42411;BME280;28056;51.112;0.984;2023-11-19T07:56:23;99980.27;;;9.32;100.00
42411;BME280;28056;51.112;0.984;2023-11-19T07:58:50;99984.86;;;9.38;100.00
42411;BME280;28056;51.112;0.984;2023-11-19T08:01:18;99991.71;;;9.09;100.00
42411;BME280;28056;51.112;0.984;2023-11-19T08:03:47;99989.63;;;9.34;100.00
42411;BME280;28056;51.112;0.984;2023-11-19T08:06:14;99990.35;;;9.75;100.00
42411;BME280;28056;51.112;0.984;2023-11-19T08:08:42;99996.45;;;9.69;100.00
42411;BME280;28056;51.112;0.984;2023-11-19T08:11:10;99996.21;;;9.67;100.00
42411;BME280;28056;51.112;0.984;2023-11-19T08:13:37;100000.20;;;8.79;100.00
42411;BME280;28056;51.112;0.984;2023-11-19T08:16:06;99998.46;;;8.93;100.00
42411;BME280;28056;51.112;0.984;2023-11-19T08:18:33;99999.28;;;8.92;100.00
42411;BME280;28056;51.112;0.984;2023-11-19T08:21:01;100010.26;;;9.86;100.00
42411;BME280;28056;51.112;0.984;2023-11-19T08:23:29;100001.84;;;10.03;100.00
42411;BME280;28056;51.112;0.984;2023-11-19T08:25:56;100003.60;;;9.83;100.00
42411;BME280;28056;51.112;0.984;2023-11-19T08:28:23;100006.64;;;9.77;100.00
42411;BME280;28056;51.112;0.984;2023-11-19T08:30:50;100004.51;;;10.65;100.00
42411;BME280;28056;51.112;0.984;2023-11-19T08:33:18;100001.13;;;9.81;100.00
42411;BME280;28056;51.112;0.984;2023-11-19T08:35:45;99999.98;;;10.95;100.00
42411;BME280;28056;51.112;0.984;2023-11-19T08:38:12;100006.57;;;10.12;100.00
42411;BME280;28056;51.112;0.984;2023-11-19T08:40:39;100017.43;;;10.72;100.00
42411;BME280;28056;51.112;0.984;2023-11-19T08:43:07;100011.57;;;10.03;100.00
42411;BME280;28056;51.112;0.984;2023-11-19T08:45:35;100020.61;;;10.73;100.00
42411;BME280;28056;51.112;0.984;2023-11-19T08:48:03;100012.89;;;10.40;100.00
42411;BME280;28056;51.112;0.984;2023-11-19T08:50:30;100010.13;;;10.41;100.00
42411;BME280;28056;51.112;0.984;2023-11-19T08:52:57;100017.33;;;10.14;100.00
42411;BME280;28056;51.112;0.984;2023-11-19T08:55:25;100019.22;;;10.75;100.00
42411;BME280;28056;51.112;0.984;2023-11-19T08:57:52;100019.68;;;10.33;100.00
42411;BME280;28056;51.112;0.984;2023-11-19T09:00:20;100020.46;;;10.87;100.00
42411;BME280;28056;51.112;0.984;2023-11-19T09:02:48;100022.29;;;11.63;100.00
42411;BME280;28056;51.112;0.984;2023-11-19T09:05:15;100025.64;;;10.81;100.00
42411;BME280;28056;51.112;0.984;2023-11-19T09:07:42;100024.42;;;11.44;100.00
42411;BME280;28056;51.112;0.984;2023-11-19T09:10:10;100015.30;;;10.68;100.00
42411;BME280;28056;51.112;0.984;2023-11-19T09:12:37;100017.77;;;11.34;100.00
42411;BME280;28056;51.112;0.984;2023-11-19T09:15:05;100017.50;;;11.06;100.00
42411;BME280;28056;51.112;0.984;2023-11-19T09:17:33;100014.96;;;11.30;100.00
42411;BME280;28056;51.112;0.984;2023-11-19T09:20:00;100014.05;;;10.27;100.00
42411;BME280;28056;51.112;0.984;2023-11-19T09:22:27;100006.90;;;10.55;100.00
42411;BME280;28056;51.112;0.984;2023-11-19T09:24:55;100024.07;;;11.17;100.00
42411;BME280;28056;51.112;0.984;2023-11-19T09:27:22;100008.83;;;11.13;100.00
42411;BME280;28056;51.112;0.984;2023-11-19T09:29:49;100010.52;;;10.40;100.00
42411;BME280;28056;51.112;0.984;2023-11-19T09:32:17;100010.90;;;11.01;100.00
42411;BME280;28056;51.112;0.984;2023-11-19T09:34:44;100001.64;;;10.55;100.00
42411;BME280;28056;51.112;0.984;2023-11-19T09:37:11;100005.56;;;11.20;100.00
42411;BME280;28056;51.112;0.984;2023-11-19T09:39:39;100022.02;;;10.83;100.00
42411;BME280;28056;51.112;0.984;2023-11-19T09:42:07;100015.89;;;11.40;100.00
42411;BME280;28056;51.112;0.984;2023-11-19T09:44:34;100019.20;;;11.19;100.00
42411;BME280;28056;51.112;0.984;2023-11-19T09:47:03;100019.04;;;11.58;100.00
42411;BME280;28056;51.112;0.984;2023-11-19T09:49:30;100019.71;;;10.95;100.00
42411;BME280;28056;51.112;0.984;2023-11-19T09:51:58;100022.82;;;10.58;100.00
42411;BME280;28056;51.112;0.984;2023-11-19T09:54:25;100019.62;;;10.98;100.00
42411;BME280;28056;51.112;0.984;2023-11-19T09:56:53;100016.20;;;11.19;100.00
42411;BME280;28056;51.112;0.984;2023-11-19T09:59:21;100007.95;;;11.13;100.00
42411;BME280;28056;51.112;0.984;2023-11-19T10:01:48;100010.31;;;10.50;100.00
42411;BME280;28056;51.112;0.984;2023-11-19T10:04:16;99997.71;;;11.05;100.00
42411;BME280;28056;51.112;0.984;2023-11-19T10:06:44;99988.20;;;11.95;100.00
42411;BME280;28056;51.112;0.984;2023-11-19T10:09:12;99996.06;;;11.81;100.00
42411;BME280;28056;51.112;0.984;2023-11-19T10:11:39;99985.22;;;11.51;100.00
42411;BME280;28056;51.112;0.984;2023-11-19T10:14:07;99989.38;;;10.68;100.00
42411;BME280;28056;51.112;0.984;2023-11-19T10:16:34;99982.42;;;11.51;100.00
42411;BME280;28056;51.112;0.984;2023-11-19T10:19:02;99986.51;;;10.94;100.00
42411;BME280;28056;51.112;0.984;2023-11-19T10:21:32;99991.86;;;11.22;100.00
42411;BME280;28056;51.112;0.984;2023-11-19T10:24:00;99994.19;;;11.01;100.00
42411;BME280;28056;51.112;0.984;2023-11-19T10:26:27;99994.17;;;11.18;100.00
42411;BME280;28056;51.112;0.984;2023-11-19T10:28:55;99997.30;;;10.97;100.00
42411;BME280;28056;51.112;0.984;2023-11-19T10:31:23;99988.66;;;10.83;100.00
42411;BME280;28056;51.112;0.984;2023-11-19T10:33:50;99985.87;;;10.54;100.00
42411;BME280;28056;51.112;0.984;2023-11-19T10:36:18;99981.52;;;11.88;100.00
42411;BME280;28056;51.112;0.984;2023-11-19T10:38:53;99978.93;;;11.72;100.00
42411;BME280;28056;51.112;0.984;2023-11-19T10:41:29;99970.58;;;11.97;99.98
42411;BME280;28056;51.112;0.984;2023-11-19T10:43:56;99988.38;;;12.16;100.00
42411;BME280;28056;51.112;0.984;2023-11-19T10:46:36;99970.30;;;12.26;100.00
42411;BME280;28056;51.112;0.984;2023-11-19T10:49:04;99966.00;;;11.72;100.00
42411;BME280;28056;51.112;0.984;2023-11-19T10:51:32;99988.80;;;11.04;100.00
42411;BME280;28056;51.112;0.984;2023-11-19T10:54:02;99981.86;;;11.09;100.00
42411;BME280;28056;51.112;0.984;2023-11-19T10:56:31;99968.55;;;12.07;100.00
42411;BME280;28056;51.112;0.984;2023-11-19T10:59:00;99973.77;;;10.50;100.00
42411;BME280;28056;51.112;0.984;2023-11-19T11:01:32;99974.35;;;11.11;100.00
42411;BME280;28056;51.112;0.984;2023-11-19T11:04:02;99978.11;;;11.86;100.00
42411;BME280;28056;51.112;0.984;2023-11-19T11:06:30;99967.07;;;11.92;100.00
42411;BME280;28056;51.112;0.984;2023-11-19T11:08:58;99974.72;;;11.15;100.00
42411;BME280;28056;51.112;0.984;2023-11-19T11:11:27;99979.83;;;11.81;100.00
42411;BME280;28056;51.112;0.984;2023-11-19T11:13:55;99990.81;;;12.08;100.00
42411;BME280;28056;51.112;0.984;2023-11-19T11:16:24;99972.54;;;12.29;99.58
42411;BME280;28056;51.112;0.984;2023-11-19T11:18:52;99982.25;;;12.91;92.29
42411;BME280;28056;51.112;0.984;2023-11-19T11:21:24;99968.38;;;12.09;99.86
42411;BME280;28056;51.112;0.984;2023-11-19T11:24:08;99971.82;;;12.45;93.28
42411;BME280;28056;51.112;0.984;2023-11-19T11:26:53;99963.06;;;12.92;92.74
42411;BME280;28056;51.112;0.984;2023-11-19T11:29:31;99966.27;;;12.22;97.87
42411;BME280;28056;51.112;0.984;2023-11-19T11:32:13;99972.66;;;13.57;94.93
42411;BME280;28056;51.112;0.984;2023-11-19T11:35:02;99968.03;;;13.03;92.58
42411;BME280;28056;51.112;0.984;2023-11-19T11:37:39;99951.75;;;11.57;100.00
42411;BME280;28056;51.112;0.984;2023-11-19T11:40:14;99952.07;;;12.15;98.12
42411;BME280;28056;51.112;0.984;2023-11-19T11:42:41;99944.91;;;11.68;100.00
42411;BME280;28056;51.112;0.984;2023-11-19T11:45:10;99935.04;;;11.99;100.00
42411;BME280;28056;51.112;0.984;2023-11-19T11:48:11;99934.42;;;12.77;100.00
42411;BME280;28056;51.112;0.984;2023-11-19T11:50:57;99933.54;;;12.42;98.19
42411;BME280;28056;51.112;0.984;2023-11-19T11:53:25;99927.86;;;14.05;89.24
42411;BME280;28056;51.112;0.984;2023-11-19T11:55:55;99927.03;;;14.36;81.49
42411;BME280;28056;51.112;0.984;2023-11-19T11:58:27;99936.43;;;12.77;89.35
42411;BME280;28056;51.112;0.984;2023-11-19T12:00:57;99946.04;;;11.80;95.09
42411;BME280;28056;51.112;0.984;2023-11-19T12:03:27;99926.24;;;12.68;93.14
42411;BME280;28056;51.112;0.984;2023-11-19T12:05:55;99923.22;;;11.54;100.00
42411;BME280;28056;51.112;0.984;2023-11-19T12:08:27;99929.26;;;11.43;100.00
42411;BME280;28056;51.112;0.984;2023-11-19T12:10:57;99929.88;;;11.57;100.00
42411;BME280;28056;51.112;0.984;2023-11-19T12:16:10;99942.00;;;11.44;100.00
42411;BME280;28056;51.112;0.984;2023-11-19T12:18:39;99942.31;;;10.85;100.00
42411;BME280;28056;51.112;0.984;2023-11-19T12:21:07;99943.23;;;11.27;100.00
42411;BME280;28056;51.112;0.984;2023-11-19T12:23:35;99939.21;;;10.85;100.00
42411;BME280;28056;51.112;0.984;2023-11-19T12:26:21;99931.56;;;11.12;100.00
42411;BME280;28056;51.112;0.984;2023-11-19T12:28:59;99925.66;;;10.86;100.00
42411;BME280;28056;51.112;0.984;2023-11-19T12:31:26;99917.89;;;10.91;100.00
42411;BME280;28056;51.112;0.984;2023-11-19T12:33:58;99915.98;;;10.45;100.00
42411;BME280;28056;51.112;0.984;2023-11-19T12:36:26;99916.90;;;10.60;100.00
42411;BME280;28056;51.112;0.984;2023-11-19T12:38:53;99913.31;;;10.94;100.00
42411;BME280;28056;51.112;0.984;2023-11-19T12:41:21;99918.28;;;10.65;100.00
42411;BME280;28056;51.112;0.984;2023-11-19T12:43:48;99905.35;;;11.24;100.00
42411;BME280;28056;51.112;0.984;2023-11-19T12:46:20;99912.77;;;11.31;100.00
42411;BME280;28056;51.112;0.984;2023-11-19T12:48:47;99900.15;;;10.74;100.00
42411;BME280;28056;51.112;0.984;2023-11-19T12:51:15;99906.53;;;11.06;100.00
42411;BME280;28056;51.112;0.984;2023-11-19T12:53:50;99916.09;;;10.78;100.00
42411;BME280;28056;51.112;0.984;2023-11-19T12:56:17;99897.93;;;11.32;100.00
42411;BME280;28056;51.112;0.984;2023-11-19T12:58:45;99916.13;;;10.61;100.00
42411;BME280;28056;51.112;0.984;2023-11-19T13:01:20;99915.84;;;10.31;100.00